Terminal Aerodrome Forecast
Issued by NWS

Home | Current Version | Previous Version | Text Only | Print | Product List | Glossary On
Versions: 1 2 3 4 5 6 7 8 9 10 11 12 13 14 15 16 17 18 19 20 21 22 23 24 25 26 27 28 29 30 31 32 33 34 35 36 37 38 39 40 41
000
FTUS43 KMKX 042334
TAFENW
TAF
KENW 042334Z 0500/0524 06009KT P6SM SCT050
     FM050500 04006KT P6SM BKN110
     FM051000 05008KT P6SM SHRA OVC070
     FM051400 06010KT 6SM -SHRA BR OVC010
     FM051600 07010KT 5SM SHRA BR OVC015
     FM051800 06010KT 3SM BR OVC010=

USA.gov is the U.S. government's official web portal to all federal, state and local government web resources and services.